createdAt,value
2018-09-27T00:00:14.068Z,13.69
2018-09-27T00:02:43.488Z,13.69
2018-09-27T00:05:12.857Z,13.67
2018-09-27T00:07:42.338Z,13.68
2018-09-27T00:10:11.527Z,13.66
2018-09-27T00:12:40.801Z,13.65
2018-09-27T00:15:10.038Z,13.68
2018-09-27T00:17:39.122Z,13.68
2018-09-27T00:20:08.542Z,13.67
2018-09-27T00:22:37.675Z,13.63
2018-09-27T00:25:06.824Z,13.61
2018-09-27T00:27:36.025Z,13.59
2018-09-27T00:30:05.172Z,13.58
2018-09-27T00:32:34.412Z,13.58
2018-09-27T00:35:03.655Z,13.57
2018-09-27T00:37:32.768Z,13.58
2018-09-27T00:40:01.856Z,13.58
2018-09-27T00:42:31.108Z,13.56
2018-09-27T00:45:00.897Z,13.54
2018-09-27T00:47:30.120Z,13.52
2018-09-27T00:50:00.558Z,13.50
2018-09-27T00:52:29.983Z,13.49
2018-09-27T00:54:59.047Z,13.47
2018-09-27T00:57:28.049Z,13.48
2018-09-27T00:59:57.312Z,13.47
2018-09-27T01:02:26.416Z,13.48
2018-09-27T01:04:55.533Z,13.47
2018-09-27T01:07:24.680Z,13.44
2018-09-27T01:09:53.688Z,13.42
2018-09-27T01:12:22.732Z,13.35
2018-09-27T01:14:51.734Z,13.34
2018-09-27T01:17:20.838Z,13.31
2018-09-27T01:19:49.853Z,13.31
2018-09-27T01:22:20.008Z,13.30
2018-09-27T01:24:49.169Z,13.30
2018-09-27T01:27:18.273Z,13.33
2018-09-27T01:29:47.427Z,13.35
2018-09-27T01:32:16.652Z,13.35
2018-09-27T01:34:45.741Z,13.35
2018-09-27T01:37:15.352Z,13.38
2018-09-27T01:39:44.568Z,13.38
2018-09-27T01:42:13.741Z,13.37
2018-09-27T01:44:43.047Z,13.33
2018-09-27T01:47:13.222Z,13.29
2018-09-27T01:49:42.304Z,13.26
2018-09-27T01:52:11.561Z,13.25
2018-09-27T01:54:40.801Z,13.24
2018-09-27T01:57:09.866Z,13.23
2018-09-27T01:59:39.770Z,13.22
2018-09-27T02:02:08.937Z,13.19
2018-09-27T02:04:37.964Z,13.18
2018-09-27T02:07:07.111Z,13.16
2018-09-27T02:09:36.180Z,13.13
2018-09-27T02:12:05.264Z,13.11
2018-09-27T02:14:34.994Z,13.07
2018-09-27T02:17:04.053Z,13.03
2018-09-27T02:19:33.401Z,13.02
2018-09-27T02:22:02.492Z,12.99
2018-09-27T02:24:31.584Z,12.96
2018-09-27T02:27:00.704Z,12.95
2018-09-27T02:29:29.864Z,12.92
2018-09-27T02:31:59.307Z,12.89
2018-09-27T02:34:28.405Z,12.89
2018-09-27T02:36:57.616Z,12.89
2018-09-27T02:39:26.834Z,12.91
2018-09-27T02:41:56.084Z,12.93
2018-09-27T02:44:25.225Z,12.91
2018-09-27T02:46:54.418Z,12.94
2018-09-27T02:49:23.541Z,12.93
2018-09-27T02:51:52.738Z,12.92
2018-09-27T02:54:21.960Z,12.92
2018-09-27T02:56:51.016Z,12.91
2018-09-27T02:59:20.157Z,12.93
2018-09-27T03:01:49.464Z,12.94
2018-09-27T03:04:18.934Z,12.96
2018-09-27T03:06:48.097Z,12.97
2018-09-27T03:09:17.196Z,12.97
2018-09-27T03:11:46.356Z,12.99
2018-09-27T03:14:15.424Z,12.97
2018-09-27T03:16:44.602Z,12.97
2018-09-27T03:19:13.788Z,12.97
2018-09-27T03:21:42.937Z,12.97
2018-09-27T03:24:12.040Z,12.97
2018-09-27T03:26:41.128Z,12.95
2018-09-27T03:29:11.308Z,12.95
2018-09-27T03:31:40.565Z,12.93
2018-09-27T03:34:10.897Z,12.94
2018-09-27T03:36:40.020Z,12.94
2018-09-27T03:39:10.411Z,12.92
2018-09-27T03:41:39.544Z,12.90
2018-09-27T03:44:08.626Z,12.87
2018-09-27T03:46:37.683Z,12.86
2018-09-27T03:49:06.776Z,12.81
2018-09-27T03:51:35.941Z,12.80
2018-09-27T03:54:05.110Z,12.80
2018-09-27T03:56:34.176Z,12.77
2018-09-27T03:59:03.964Z,12.77
2018-09-27T04:01:33.123Z,12.74
2018-09-27T04:04:02.217Z,12.72
2018-09-27T04:06:31.236Z,12.70
2018-09-27T04:09:00.369Z,12.67
2018-09-27T04:11:29.526Z,12.65
2018-09-27T04:13:58.624Z,12.63
2018-09-27T04:16:27.753Z,12.62
2018-09-27T04:18:56.841Z,12.60
2018-09-27T04:21:25.896Z,12.61
2018-09-27T04:23:55.066Z,12.62
2018-09-27T04:26:24.228Z,12.65
2018-09-27T04:28:53.433Z,12.67
2018-09-27T04:31:22.600Z,12.70
2018-09-27T04:33:51.870Z,12.68
2018-09-27T04:36:21.128Z,12.67
2018-09-27T04:38:50.398Z,12.65
2018-09-27T04:41:20.002Z,12.63
2018-09-27T04:43:49.429Z,12.65
2018-09-27T04:46:18.987Z,12.64
2018-09-27T04:48:48.504Z,12.67
2018-09-27T04:51:17.715Z,12.67
2018-09-27T04:53:47.046Z,12.68
2018-09-27T04:56:16.410Z,12.67
2018-09-27T04:58:46.104Z,12.67
2018-09-27T05:01:15.585Z,12.66
2018-09-27T05:03:45.204Z,12.64
2018-09-27T05:06:15.329Z,12.61
2018-09-27T05:08:44.925Z,12.58
2018-09-27T05:11:16.544Z,12.52
2018-09-27T05:13:47.368Z,12.48
2018-09-27T05:16:17.340Z,12.48
2018-09-27T05:18:49.076Z,12.48
2018-09-27T05:21:19.371Z,12.50
2018-09-27T05:23:50.223Z,12.54
2018-09-27T05:26:19.551Z,12.59
2018-09-27T05:28:48.795Z,12.61
2018-09-27T05:31:18.221Z,12.63
2018-09-27T05:33:47.675Z,12.63
2018-09-27T05:36:17.015Z,12.64
2018-09-27T05:38:46.268Z,12.68
2018-09-27T05:41:15.512Z,12.71
2018-09-27T05:43:45.109Z,12.70
2018-09-27T05:46:14.523Z,12.74
2018-09-27T05:48:43.886Z,12.85
2018-09-27T05:51:13.290Z,12.99
2018-09-27T05:53:42.761Z,13.19
2018-09-27T05:56:13.989Z,13.42
2018-09-27T05:58:43.667Z,13.64
2018-09-27T06:01:14.094Z,13.92
2018-09-27T06:03:43.310Z,14.22
2018-09-27T06:06:13.094Z,14.57
2018-09-27T06:08:42.558Z,14.97
2018-09-27T06:11:12.308Z,15.39
2018-09-27T06:13:41.966Z,15.77
2018-09-27T06:16:11.218Z,16.12
2018-09-27T06:18:40.765Z,16.49
2018-09-27T06:21:11.275Z,16.92
2018-09-27T06:23:40.966Z,17.53
2018-09-27T06:26:10.391Z,18.22
2018-09-27T06:28:41.136Z,18.90
2018-09-27T06:31:12.941Z,19.49
2018-09-27T06:33:42.711Z,19.96
2018-09-27T06:36:12.722Z,20.40
2018-09-27T06:38:42.649Z,20.85
2018-09-27T06:41:12.637Z,21.36
2018-09-27T06:43:42.354Z,21.83
2018-09-27T06:46:11.946Z,22.10
2018-09-27T06:48:42.264Z,22.19
2018-09-27T06:51:12.706Z,22.23
2018-09-27T06:53:43.347Z,22.34
2018-09-27T06:56:13.373Z,22.55
2018-09-27T06:58:44.107Z,22.87
2018-09-27T07:01:13.787Z,23.15
2018-09-27T07:03:43.477Z,23.34
2018-09-27T07:06:13.234Z,23.49
2018-09-27T07:08:43.166Z,23.70
2018-09-27T07:11:13.083Z,24.19
2018-09-27T07:13:42.672Z,24.79
2018-09-27T07:16:12.766Z,25.40
2018-09-27T07:18:42.600Z,25.95
2018-09-27T07:21:12.217Z,26.45
2018-09-27T07:23:42.530Z,26.93
2018-09-27T07:26:12.090Z,27.41
2018-09-27T07:28:42.452Z,27.91
2018-09-27T07:31:13.732Z,28.40
2018-09-27T07:33:43.098Z,28.98
2018-09-27T07:36:12.697Z,29.71
2018-09-27T07:38:43.260Z,30.50
2018-09-27T07:41:13.553Z,31.15
2018-09-27T07:43:43.143Z,31.82
2018-09-27T07:46:13.120Z,32.37
2018-09-27T07:48:42.936Z,32.79
2018-09-27T07:51:13.174Z,33.09
2018-09-27T07:53:42.873Z,33.38
2018-09-27T07:56:12.762Z,33.73
2018-09-27T07:58:42.202Z,33.99
2018-09-27T08:01:12.864Z,34.13
2018-09-27T08:03:42.424Z,34.30
2018-09-27T08:06:12.495Z,34.46
2018-09-27T08:08:42.642Z,34.56
2018-09-27T08:11:12.547Z,34.74
2018-09-27T08:13:41.995Z,34.92
2018-09-27T08:16:12.161Z,35.15
2018-09-27T08:18:42.066Z,35.35
2018-09-27T08:21:16.685Z,35.58
2018-09-27T08:23:50.187Z,35.71
2018-09-27T08:26:19.669Z,35.83
2018-09-27T08:28:49.197Z,35.91
2018-09-27T08:31:19.913Z,36.05
2018-09-27T08:33:49.493Z,36.17
2018-09-27T08:36:19.349Z,36.20
2018-09-27T08:38:48.895Z,36.13
2018-09-27T08:41:18.693Z,36.00
2018-09-27T08:43:48.354Z,35.81
2018-09-27T08:46:17.807Z,35.70
2018-09-27T08:48:47.480Z,35.56
2018-09-27T08:51:17.175Z,35.50
2018-09-27T08:53:46.656Z,35.50
2018-09-27T08:56:16.616Z,35.58
2018-09-27T08:58:45.859Z,35.67
2018-09-27T09:01:15.830Z,35.81
2018-09-27T09:03:45.431Z,36.11
2018-09-27T09:06:14.701Z,36.49
2018-09-27T09:08:44.596Z,36.85
2018-09-27T09:11:14.777Z,37.07
2018-09-27T09:13:44.856Z,37.04
2018-09-27T09:16:14.772Z,36.98
2018-09-27T09:18:44.491Z,37.08
2018-09-27T09:21:14.557Z,37.08
2018-09-27T09:23:44.585Z,37.07
2018-09-27T09:26:14.375Z,36.94
2018-09-27T09:28:44.208Z,36.72
2018-09-27T09:31:16.948Z,36.52
2018-09-27T09:33:46.715Z,36.32
2018-09-27T09:36:17.166Z,36.22
2018-09-27T09:38:47.039Z,36.03
2018-09-27T09:41:18.065Z,35.79
2018-09-27T09:43:47.480Z,35.66
2018-09-27T09:46:17.633Z,35.51
2018-09-27T09:48:47.010Z,35.33
2018-09-27T09:51:17.199Z,35.16
2018-09-27T09:53:47.032Z,35.01
2018-09-27T09:56:16.894Z,34.77
2018-09-27T09:58:46.806Z,34.50
2018-09-27T10:01:17.036Z,34.25
2018-09-27T10:03:46.716Z,34.06
2018-09-27T10:06:19.179Z,33.89
2018-09-27T10:08:50.345Z,33.77
2018-09-27T10:11:22.154Z,33.61
2018-09-27T10:13:52.749Z,33.52
2018-09-27T10:16:23.163Z,33.48
2018-09-27T10:18:53.285Z,33.56
2018-09-27T10:21:23.989Z,33.67
2018-09-27T10:23:53.271Z,33.62
2018-09-27T10:26:22.624Z,33.37
2018-09-27T10:28:51.973Z,33.14
2018-09-27T10:31:21.701Z,33.01
2018-09-27T10:33:51.780Z,32.94
2018-09-27T10:36:23.105Z,32.88
2018-09-27T10:38:53.646Z,32.82
2018-09-27T10:41:27.048Z,32.72
2018-09-27T10:43:56.999Z,32.62
2018-09-27T10:46:26.339Z,32.63
2018-09-27T10:48:56.324Z,32.71
2018-09-27T10:51:25.885Z,32.77
2018-09-27T10:53:55.626Z,32.88
2018-09-27T10:56:25.296Z,32.99
2018-09-27T10:58:54.710Z,33.20
2018-09-27T11:01:24.802Z,33.40
2018-09-27T11:03:54.250Z,33.58
2018-09-27T11:06:23.817Z,33.70
2018-09-27T11:08:53.526Z,33.81
2018-09-27T11:11:23.570Z,33.91
2018-09-27T11:13:52.914Z,33.97
2018-09-27T11:16:22.733Z,33.93
2018-09-27T11:18:52.269Z,33.85
2018-09-27T11:21:22.287Z,33.76
2018-09-27T11:23:52.021Z,33.78
2018-09-27T11:26:21.910Z,33.85
2018-09-27T11:28:56.492Z,33.93
2018-09-27T11:31:30.923Z,33.96
2018-09-27T11:34:00.617Z,33.87
2018-09-27T11:36:30.062Z,33.70
2018-09-27T11:38:59.838Z,33.53
2018-09-27T11:41:29.360Z,33.39
2018-09-27T11:44:00.372Z,33.28
2018-09-27T11:46:29.902Z,33.12
2018-09-27T11:48:59.573Z,32.95
2018-09-27T11:51:29.160Z,32.69
2018-09-27T11:53:58.851Z,32.36
2018-09-27T11:56:28.653Z,32.01
2018-09-27T11:58:58.772Z,31.62
2018-09-27T12:01:28.415Z,31.26
2018-09-27T12:03:57.949Z,30.91
2018-09-27T12:06:28.060Z,30.62
2018-09-27T12:08:57.731Z,30.43
2018-09-27T12:11:27.157Z,30.29
2018-09-27T12:13:56.933Z,30.21
2018-09-27T12:16:26.389Z,30.18
2018-09-27T12:18:59.162Z,30.16
2018-09-27T12:21:28.597Z,30.10
2018-09-27T12:23:59.432Z,30.06
2018-09-27T12:26:29.661Z,30.03
2018-09-27T12:28:59.249Z,29.98
2018-09-27T12:31:29.349Z,29.94
2018-09-27T12:34:00.033Z,29.93
2018-09-27T12:36:29.407Z,29.84
2018-09-27T12:38:59.133Z,29.62
2018-09-27T12:41:28.630Z,29.37
2018-09-27T12:43:58.927Z,29.10
2018-09-27T12:46:28.302Z,28.85
2018-09-27T12:48:59.293Z,28.55
2018-09-27T12:51:30.106Z,28.25
2018-09-27T12:53:59.994Z,28.01
2018-09-27T12:56:31.492Z,27.75
2018-09-27T12:59:02.405Z,27.56
2018-09-27T13:01:32.327Z,27.42
2018-09-27T13:04:01.925Z,27.34
2018-09-27T13:06:31.573Z,27.28
2018-09-27T13:09:02.045Z,27.26
2018-09-27T13:11:32.111Z,27.22
2018-09-27T13:14:08.404Z,27.19
2018-09-27T13:16:37.813Z,27.12
2018-09-27T13:19:07.798Z,27.08
2018-09-27T13:24:13.306Z,27.01
2018-09-27T13:26:43.265Z,27.00
2018-09-27T13:29:12.939Z,26.94
2018-09-27T13:31:42.746Z,26.91
2018-09-27T13:34:12.765Z,26.89
2018-09-27T13:36:42.198Z,26.89
2018-09-27T13:39:12.211Z,26.92
2018-09-27T13:41:42.165Z,26.92
2018-09-27T13:44:11.772Z,26.90
2018-09-27T13:46:41.043Z,26.88
2018-09-27T13:49:13.302Z,26.88
2018-09-27T13:51:43.023Z,26.89
2018-09-27T13:54:12.708Z,26.92
2018-09-27T13:56:43.814Z,26.97
2018-09-27T13:59:14.569Z,27.00
2018-09-27T14:01:44.299Z,27.00
2018-09-27T14:04:13.742Z,26.97
2018-09-27T14:06:43.304Z,26.93
2018-09-27T14:09:14.146Z,26.89
2018-09-27T14:11:44.630Z,26.87
2018-09-27T14:14:14.269Z,26.86
2018-09-27T14:16:43.632Z,26.86
2018-09-27T14:19:13.313Z,26.85
2018-09-27T14:21:42.901Z,26.86
2018-09-27T14:24:12.628Z,26.85
2018-09-27T14:26:42.892Z,26.81
2018-09-27T14:29:12.897Z,26.77
2018-09-27T14:31:42.408Z,26.74
2018-09-27T14:34:11.818Z,26.68
2018-09-27T14:36:41.328Z,26.63
2018-09-27T14:39:11.644Z,26.59
2018-09-27T14:41:41.656Z,26.56
2018-09-27T14:44:11.307Z,26.54
2018-09-27T14:46:40.848Z,26.52
2018-09-27T14:49:13.478Z,26.52
2018-09-27T14:51:43.101Z,26.51
2018-09-27T14:54:12.638Z,26.50
2018-09-27T14:56:42.118Z,26.50
2018-09-27T14:59:11.777Z,26.48
2018-09-27T15:01:41.258Z,26.44
2018-09-27T15:04:10.635Z,26.41
2018-09-27T15:06:40.081Z,26.37
2018-09-27T15:09:11.023Z,26.33
2018-09-27T15:11:40.725Z,26.27
2018-09-27T15:14:10.209Z,26.25
2018-09-27T15:16:39.371Z,26.21
2018-09-27T15:19:08.904Z,26.20
2018-09-27T15:21:38.551Z,26.18
2018-09-27T15:24:08.422Z,26.17
2018-09-27T15:26:37.757Z,26.14
2018-09-27T15:29:07.397Z,26.13
2018-09-27T15:31:36.697Z,26.08
2018-09-27T15:34:06.206Z,26.10
2018-09-27T15:36:35.680Z,26.08
2018-09-27T15:39:06.332Z,26.10
2018-09-27T15:41:35.793Z,26.08
2018-09-27T15:44:07.953Z,26.10
2018-09-27T15:46:37.290Z,26.11
2018-09-27T15:49:06.617Z,26.11
2018-09-27T15:51:36.028Z,26.12
2018-09-27T15:54:05.357Z,26.14
2018-09-27T15:56:34.870Z,26.13
2018-09-27T15:59:04.837Z,26.11
2018-09-27T16:01:34.479Z,26.11
2018-09-27T16:04:04.057Z,26.12
2018-09-27T16:06:33.373Z,26.13
2018-09-27T16:09:02.750Z,26.11
2018-09-27T16:11:32.173Z,26.11
2018-09-27T16:14:01.455Z,26.10
2018-09-27T16:16:30.656Z,26.06
2018-09-27T16:18:59.898Z,26.04
2018-09-27T16:21:29.301Z,26.00
2018-09-27T16:23:58.597Z,25.95
2018-09-27T16:26:28.036Z,25.91
2018-09-27T16:28:57.570Z,25.88
2018-09-27T16:31:26.886Z,25.82
2018-09-27T16:33:57.035Z,25.77
2018-09-27T16:36:26.121Z,25.73
2018-09-27T16:38:55.501Z,25.65
2018-09-27T16:41:24.892Z,25.59
2018-09-27T16:43:54.120Z,25.53
2018-09-27T16:46:23.501Z,25.46
2018-09-27T16:48:52.816Z,25.36
2018-09-27T16:51:22.181Z,25.27
2018-09-27T16:53:51.405Z,25.18
2018-09-27T16:56:20.615Z,25.08
2018-09-27T16:58:49.967Z,24.97
2018-09-27T17:01:19.355Z,24.88
2018-09-27T17:03:49.029Z,24.76
2018-09-27T17:06:18.643Z,24.64
2018-09-27T17:08:48.784Z,24.53
2018-09-27T17:11:18.346Z,24.43
2018-09-27T17:13:47.709Z,24.29
2018-09-27T17:16:18.729Z,24.19
2018-09-27T17:18:50.840Z,24.09
2018-09-27T17:21:20.850Z,23.97
2018-09-27T17:23:50.443Z,23.86
2018-09-27T17:26:20.331Z,23.71
2018-09-27T17:28:49.545Z,23.61
2018-09-27T17:31:20.139Z,23.50
2018-09-27T17:33:49.575Z,23.38
2018-09-27T17:36:19.051Z,23.26
2018-09-27T17:38:49.134Z,23.12
2018-09-27T17:41:20.629Z,23.01
2018-09-27T17:43:50.567Z,22.88
2018-09-27T17:46:20.680Z,22.72
2018-09-27T17:48:51.341Z,22.57
2018-09-27T17:51:22.920Z,22.44
2018-09-27T17:53:52.483Z,22.31
2018-09-27T17:56:22.442Z,22.18
2018-09-27T17:58:52.846Z,22.07
2018-09-27T18:01:24.498Z,21.95
2018-09-27T18:03:54.264Z,21.81
2018-09-27T18:06:23.930Z,21.70
2018-09-27T18:08:53.757Z,21.60
2018-09-27T18:11:23.059Z,21.47
2018-09-27T18:13:54.746Z,21.37
2018-09-27T18:16:24.121Z,21.28
2018-09-27T18:18:53.631Z,21.18
2018-09-27T18:21:22.889Z,21.10
2018-09-27T18:23:53.127Z,21.00
2018-09-27T18:26:24.022Z,20.88
2018-09-27T18:28:53.829Z,20.76
2018-09-27T18:31:23.074Z,20.63
2018-09-27T18:33:54.203Z,20.52
2018-09-27T18:36:24.508Z,20.42
2018-09-27T18:38:53.690Z,20.34
2018-09-27T18:41:23.509Z,20.25
2018-09-27T18:43:52.755Z,20.17
2018-09-27T18:46:22.773Z,20.09
2018-09-27T18:48:52.196Z,20.02
2018-09-27T18:51:21.714Z,19.96
2018-09-27T18:53:52.198Z,19.91
2018-09-27T18:56:22.545Z,19.88
2018-09-27T18:58:51.956Z,19.83
2018-09-27T19:01:21.394Z,19.81
2018-09-27T19:03:50.693Z,19.78
2018-09-27T19:06:19.848Z,19.73
2018-09-27T19:08:49.186Z,19.69
2018-09-27T19:11:18.331Z,19.65
2018-09-27T19:13:47.595Z,19.59
2018-09-27T19:16:16.963Z,19.56
2018-09-27T19:18:46.232Z,19.51
2018-09-27T19:21:15.592Z,19.48
2018-09-27T19:23:45.094Z,19.43
2018-09-27T19:26:14.434Z,19.38
2018-09-27T19:28:45.999Z,19.33
2018-09-27T19:31:18.568Z,19.30
2018-09-27T19:33:48.673Z,19.26
2018-09-27T19:36:18.074Z,19.27
2018-09-27T19:38:47.966Z,19.25
2018-09-27T19:41:17.110Z,19.22
2018-09-27T19:43:46.481Z,19.21
2018-09-27T19:46:17.008Z,19.20
2018-09-27T19:48:47.105Z,19.16
2018-09-27T19:51:16.995Z,19.13
2018-09-27T19:53:47.244Z,19.10
2018-09-27T19:56:17.059Z,19.08
2018-09-27T19:58:46.846Z,19.07
2018-09-27T20:01:16.702Z,19.06
2018-09-27T20:03:46.356Z,19.05
2018-09-27T20:06:18.361Z,19.03
2018-09-27T20:08:49.481Z,19.00
2018-09-27T20:11:18.846Z,19.00
2018-09-27T20:13:48.033Z,18.98
2018-09-27T20:16:17.326Z,18.97
2018-09-27T20:18:47.885Z,18.96
2018-09-27T20:21:17.258Z,18.92
2018-09-27T20:23:46.450Z,18.89
2018-09-27T20:26:16.216Z,18.86
2018-09-27T20:28:45.559Z,18.83
2018-09-27T20:31:14.971Z,18.79
2018-09-27T20:33:44.128Z,18.74
2018-09-27T20:36:13.567Z,18.70
2018-09-27T20:38:42.640Z,18.64
2018-09-27T20:41:12.573Z,18.60
2018-09-27T20:43:42.143Z,18.55
2018-09-27T20:46:11.394Z,18.51
2018-09-27T20:48:41.181Z,18.45
2018-09-27T20:51:12.249Z,18.39
2018-09-27T20:53:45.074Z,18.35
2018-09-27T20:56:14.723Z,18.31
2018-09-27T20:58:44.541Z,18.26
2018-09-27T21:01:14.612Z,18.21
2018-09-27T21:03:43.919Z,18.18
2018-09-27T21:06:13.429Z,18.13
2018-09-27T21:08:44.162Z,18.08
2018-09-27T21:11:17.064Z,18.06
2018-09-27T21:13:46.425Z,18.02
2018-09-27T21:16:17.140Z,18.00
2018-09-27T21:18:46.881Z,17.98
2018-09-27T21:21:18.320Z,17.97
2018-09-27T21:23:49.475Z,17.95
2018-09-27T21:26:20.291Z,17.94
2018-09-27T21:28:49.736Z,17.92
2018-09-27T21:31:18.972Z,17.91
2018-09-27T21:33:48.317Z,17.87
2018-09-27T21:36:18.332Z,17.87
2018-09-27T21:38:48.015Z,17.85
2018-09-27T21:41:17.112Z,17.82
2018-09-27T21:43:46.318Z,17.80
2018-09-27T21:46:15.837Z,17.79
2018-09-27T21:48:45.232Z,17.76
2018-09-27T21:51:14.496Z,17.73
2018-09-27T21:53:45.481Z,17.70
2018-09-27T21:56:14.963Z,17.68
2018-09-27T21:58:44.396Z,17.64
2018-09-27T22:01:13.922Z,17.60
2018-09-27T22:03:44.005Z,17.58
2018-09-27T22:06:13.359Z,17.54
2018-09-27T22:08:43.534Z,17.50
2018-09-27T22:11:12.972Z,17.47
2018-09-27T22:13:44.170Z,17.42
2018-09-27T22:16:14.783Z,17.39
2018-09-27T22:18:44.909Z,17.35
2018-09-27T22:21:14.145Z,17.31
2018-09-27T22:23:43.899Z,17.29
2018-09-27T22:26:13.633Z,17.26
2018-09-27T22:28:43.503Z,17.24
2018-09-27T22:31:14.699Z,17.20
2018-09-27T22:33:45.631Z,17.17
2018-09-27T22:36:15.106Z,17.12
2018-09-27T22:38:46.355Z,17.07
2018-09-27T22:41:15.666Z,17.05
2018-09-27T22:43:45.416Z,17.02
2018-09-27T22:46:15.169Z,16.98
2018-09-27T22:48:44.636Z,16.97
2018-09-27T22:51:13.876Z,16.95
2018-09-27T22:53:43.133Z,16.91
2018-09-27T22:56:12.956Z,16.87
2018-09-27T22:58:42.699Z,16.85
2018-09-27T23:01:12.129Z,16.82
2018-09-27T23:03:41.418Z,16.78
2018-09-27T23:06:10.780Z,16.74
2018-09-27T23:08:40.189Z,16.72
2018-09-27T23:11:09.425Z,16.69
2018-09-27T23:13:38.617Z,16.66
2018-09-27T23:16:07.784Z,16.63
2018-09-27T23:18:36.937Z,16.59
2018-09-27T23:21:06.198Z,16.56
2018-09-27T23:23:35.287Z,16.51
2018-09-27T23:26:04.401Z,16.49
2018-09-27T23:28:33.543Z,16.45
2018-09-27T23:31:02.747Z,16.43
2018-09-27T23:33:31.872Z,16.41
2018-09-27T23:36:01.004Z,16.37
2018-09-27T23:38:30.253Z,16.34
2018-09-27T23:40:59.345Z,16.32
2018-09-27T23:43:29.153Z,16.28
2018-09-27T23:45:58.331Z,16.27
2018-09-27T23:48:27.388Z,16.23
2018-09-27T23:50:56.496Z,16.18
2018-09-27T23:53:25.679Z,16.15
2018-09-27T23:55:54.767Z,16.13
2018-09-27T23:58:23.877Z,16.12
